Time;durP1;ratioP1;P1;durP2;ratioP2;P2;SDS_P1;SDS_P2;PMS_P1;PMS_P2;Temp;Humidity;BMP_temperature;BMP_pressure;BME280_temperature;BME280_humidity;BME280_pressure;Samples;Min_cycle;Max_cycle;Signal;HPM_P1;HPM_P2
2021/05/16 00:00:21;;;;;;;4.13;2.72;;;;;;;33.10;20.28;93698.28;5031562;28;20065;-47
2021/05/16 00:02:48;;;;;;;3.33;2.37;;;;;;;33.16;20.57;93695.00;5026672;28;20052;-54
2021/05/16 00:05:16;;;;;;;4.13;2.63;;;;;;;32.63;20.32;93692.34;5034644;28;20120;-47
2021/05/16 00:07:44;;;;;;;3.00;2.70;;;;;;;33.19;20.47;93694.84;5034826;28;20045;-46
2021/05/16 00:10:16;;;;;;;3.88;2.45;;;;;;;33.59;20.19;93694.81;5034525;28;20049;-55
2021/05/16 00:12:46;;;;;;;3.22;2.53;;;;;;;32.92;20.73;93698.22;5034624;28;20052;-49
2021/05/16 00:15:14;;;;;;;3.42;2.40;;;;;;;32.98;20.48;93701.09;5034302;28;20041;-48
2021/05/16 00:17:42;;;;;;;2.97;2.22;;;;;;;33.63;19.92;93706.25;5034816;28;20045;-51
2021/05/16 00:20:14;;;;;;;3.78;2.40;;;;;;;33.01;20.77;93702.91;5033662;28;20049;-47
2021/05/16 00:22:42;;;;;;;3.05;2.13;;;;;;;33.55;20.03;93707.75;5034536;28;20046;-47
2021/05/16 00:25:12;;;;;;;4.53;2.47;;;;;;;32.34;21.56;93709.63;5034255;28;20053;-48
2021/05/16 00:27:40;;;;;;;4.03;2.58;;;;;;;32.51;20.89;93702.78;5034527;28;20471;-50
2021/05/16 00:30:10;;;;;;;2.45;2.15;;;;;;;32.88;21.12;93708.44;5034459;28;20057;-47
2021/05/16 00:32:37;;;;;;;4.55;2.30;;;;;;;32.40;21.68;93707.09;5034430;28;20060;-49
2021/05/16 00:35:06;;;;;;;4.32;2.42;;;;;;;32.19;21.71;93703.16;5034267;28;20045;-48
2021/05/16 00:37:34;;;;;;;2.42;2.05;;;;;;;32.84;20.91;93707.81;5034699;28;20057;-47
2021/05/16 00:40:02;;;;;;;2.50;2.05;;;;;;;32.14;21.93;93701.03;5034368;28;20052;-47
2021/05/16 00:42:30;;;;;;;3.42;2.38;;;;;;;33.43;20.53;93708.63;5034290;28;20056;-46
2021/05/16 00:44:57;;;;;;;3.42;2.30;;;;;;;32.82;20.71;93709.47;5033788;28;20087;-46
2021/05/16 00:47:24;;;;;;;3.25;2.10;;;;;;;32.79;20.67;93705.66;5034641;28;20041;-46
2021/05/16 00:49:54;;;;;;;3.50;1.88;;;;;;;33.43;19.87;93708.63;5016789;28;20045;-51
2021/05/16 00:52:23;;;;;;;2.88;1.90;;;;;;;33.34;20.25;93700.50;5016762;28;20061;-48
2021/05/16 00:54:52;;;;;;;3.58;2.05;;;;;;;33.24;19.75;93702.38;5019254;28;20048;-50
2021/05/16 00:57:22;;;;;;;2.83;1.83;;;;;;;33.51;19.88;93698.25;5038126;28;20052;-47
2021/05/16 00:59:50;;;;;;;3.17;1.95;;;;;;;33.61;19.74;93702.50;5008949;28;20491;-47
2021/05/16 01:02:18;;;;;;;2.50;1.70;;;;;;;33.41;20.22;93698.25;5020539;28;20053;-46
2021/05/16 01:04:45;;;;;;;2.45;1.45;;;;;;;33.11;20.02;93707.91;5037601;28;20372;-48
2021/05/16 01:07:13;;;;;;;2.72;1.70;;;;;;;33.17;20.60;93705.38;5038123;28;20087;-48
2021/05/16 01:09:40;;;;;;;2.00;1.50;;;;;;;33.54;19.67;93703.53;5036701;28;20049;-49
2021/05/16 01:12:08;;;;;;;2.22;1.50;;;;;;;32.81;20.54;93703.28;5037615;28;20455;-46
2021/05/16 01:14:39;;;;;;;3.20;1.73;;;;;;;33.31;19.94;93695.91;5037266;28;20048;-46
2021/05/16 01:17:07;;;;;;;;;;;;;;;33.11;20.56;93697.09;5021619;28;20045;-46
2021/05/16 01:19:35;;;;;;;2.90;1.73;;;;;;;33.69;19.63;93699.03;5037378;28;19913;-46
2021/05/16 01:22:04;;;;;;;3.00;1.50;;;;;;;33.35;20.06;93685.75;5037458;28;20056;-50
2021/05/16 01:24:32;;;;;;;2.10;1.40;;;;;;;33.32;20.38;93686.66;5037148;28;20083;-55
2021/05/16 01:27:10;;;;;;;2.58;1.77;;;;;;;33.44;19.99;93680.34;5037011;28;20041;-47
2021/05/16 01:29:37;;;;;;;2.50;1.63;;;;;;;33.22;20.12;93676.94;5037462;28;20041;-49
2021/05/16 01:32:10;;;;;;;3.10;1.85;;;;;;;32.84;20.81;93675.34;5036654;28;20052;-49
2021/05/16 01:34:41;;;;;;;2.22;1.55;;;;;;;32.77;21.04;93673.59;5024551;28;20049;-47
2021/05/16 01:37:13;;;;;;;2.17;1.60;;;;;;;33.16;20.16;93667.91;5019969;28;20053;-48
2021/05/16 01:39:44;;;;;;;2.33;1.42;;;;;;;33.36;19.77;93665.59;5037194;28;20046;-47
2021/05/16 01:42:12;;;;;;;2.80;1.55;;;;;;;32.67;20.69;93657.78;5036030;28;20053;-47
2021/05/16 01:44:39;;;;;;;3.75;1.40;;;;;;;32.86;20.80;93666.78;5035623;28;20049;-47
2021/05/16 01:47:06;;;;;;;2.60;1.60;;;;;;;33.08;20.66;93667.44;5037771;28;20053;-54
2021/05/16 01:49:46;;;;;;;2.72;1.63;;;;;;;33.39;20.10;93665.44;5037435;28;20045;-48
2021/05/16 01:52:14;;;;;;;3.00;1.60;;;;;;;32.46;20.99;93665.50;5021508;28;20042;-47
2021/05/16 01:54:41;;;;;;;2.65;1.50;;;;;;;33.09;19.99;93669.72;5036762;28;20053;-47
2021/05/16 01:57:09;;;;;;;3.20;1.35;;;;;;;33.30;19.60;93678.16;5036816;28;20041;-47
2021/05/16 01:59:37;;;;;;;3.40;1.40;;;;;;;33.17;19.65;93674.84;5037172;28;20052;-46
2021/05/16 02:02:05;;;;;;;2.67;1.50;;;;;;;32.84;19.98;93669.94;5036553;28;20072;-51
2021/05/16 02:04:34;;;;;;;1.95;1.20;;;;;;;32.61;20.17;93673.09;5036470;28;20448;-47
2021/05/16 02:07:01;;;;;;;3.83;1.48;;;;;;;32.36;20.67;93674.03;5018821;28;20060;-48
2021/05/16 02:09:32;;;;;;;3.15;1.20;;;;;;;33.19;20.03;93680.56;5018896;28;20057;-46
2021/05/16 02:12:01;;;;;;;3.58;1.88;;;;;;;33.30;20.06;93683.59;5019139;28;20041;-46
2021/05/16 02:14:31;;;;;;;3.15;1.45;;;;;;;33.33;20.19;93682.75;5014952;28;20061;-54
2021/05/16 02:17:02;;;;;;;2.47;1.52;;;;;;;33.21;20.38;93688.97;5016822;28;20053;-48
2021/05/16 02:19:29;;;;;;;2.53;1.40;;;;;;;33.00;20.71;93694.03;5029783;28;20364;-46
2021/05/16 02:21:57;;;;;;;3.58;1.52;;;;;;;33.17;20.22;93691.09;5017779;28;20045;-48
2021/05/16 02:24:26;;;;;;;2.35;1.55;;;;;;;33.29;20.61;93698.31;5018763;28;20060;-47
2021/05/16 02:27:06;;;;;;;2.88;1.65;;;;;;;33.51;20.49;93690.88;5018950;28;20045;-47
2021/05/16 02:29:42;;;;;;;2.17;1.30;;;;;;;33.51;20.14;93693.59;5019109;28;20445;-52
2021/05/16 02:32:10;;;;;;;2.58;1.45;;;;;;;33.80;19.37;93689.69;5034562;28;20049;-48
2021/05/16 02:34:38;;;;;;;1.92;1.45;;;;;;;33.80;19.33;93698.59;5036361;28;20057;-60
2021/05/16 02:37:07;;;;;;;2.47;1.40;;;;;;;33.65;19.52;93693.00;5034795;28;20049;-49
2021/05/16 02:39:37;;;;;;;3.25;1.52;;;;;;;33.72;19.89;93695.44;5019325;28;20333;-49
2021/05/16 02:42:04;;;;;;;2.53;1.20;;;;;;;33.57;20.28;93691.81;5034001;28;20045;-47
2021/05/16 02:44:32;;;;;;;3.97;1.70;;;;;;;32.51;21.40;93702.03;5034253;28;20334;-50
2021/05/16 02:46:59;;;;;;;2.92;1.50;;;;;;;33.57;20.44;93697.22;5018665;28;20064;-47
2021/05/16 02:49:26;;;;;;;3.85;1.60;;;;;;;33.67;19.97;93690.59;5034840;28;20064;-51
2021/05/16 02:51:54;;;;;;;4.65;1.70;;;;;;;33.35;20.59;93696.59;5034908;28;20041;-48
2021/05/16 02:54:22;;;;;;;2.78;1.50;;;;;;;33.36;20.65;93696.13;5018435;28;20049;-48
2021/05/16 02:56:49;;;;;;;2.67;1.77;;;;;;;32.65;21.05;93701.53;5035750;28;20060;-49
2021/05/16 02:59:18;;;;;;;2.85;1.65;;;;;;;33.52;20.05;93703.22;5033905;28;20048;-48
2021/05/16 03:01:46;;;;;;;3.22;1.80;;;;;;;32.91;20.80;93710.25;5033652;28;20045;-50
2021/05/16 03:04:13;;;;;;;3.75;2.17;;;;;;;33.55;19.82;93715.88;5017838;28;20440;-45
2021/05/16 03:06:42;;;;;;;4.10;1.80;;;;;;;32.41;21.20;93712.06;5035556;28;20053;-51
2021/05/16 03:09:09;;;;;;;3.17;1.90;;;;;;;32.74;21.05;93714.34;5035544;28;20061;-48
2021/05/16 03:11:37;;;;;;;3.90;2.00;;;;;;;32.80;21.19;93715.31;5035376;28;20056;-50
2021/05/16 03:14:05;;;;;;;6.65;2.15;;;;;;;32.84;21.06;93710.53;5017503;28;20053;-50
2021/05/16 03:16:34;;;;;;;4.97;2.15;;;;;;;32.46;20.96;93716.88;5035324;28;20048;-47
2021/05/16 03:19:02;;;;;;;3.28;2.20;;;;;;;32.87;20.25;93715.03;5034733;28;20060;-49
2021/05/16 03:21:36;;;;;;;4.53;2.05;;;;;;;32.74;20.99;93719.75;5017903;28;20045;-53
2021/05/16 03:24:04;;;;;;;4.30;2.13;;;;;;;32.66;20.98;93719.25;5017564;28;20046;-47
2021/05/16 03:26:32;;;;;;;4.07;2.22;;;;;;;32.80;20.25;93718.03;5017848;28;20049;-48
2021/05/16 03:28:59;;;;;;;3.35;1.80;;;;;;;33.56;19.56;93717.38;5035105;28;20052;-48
2021/05/16 03:31:27;;;;;;;3.53;2.20;;;;;;;33.21;20.05;93719.53;5035320;28;20479;-50
2021/05/16 03:33:54;;;;;;;5.55;2.90;;;;;;;33.36;19.83;93714.34;5035048;28;20333;-46
2021/05/16 03:36:21;;;;;;;4.00;2.83;;;;;;;33.53;19.56;93717.53;5035074;28;20436;-47
2021/05/16 03:38:48;;;;;;;4.20;2.92;;;;;;;33.50;19.83;93711.03;5035545;28;20060;-47
2021/05/16 03:41:15;;;;;;;9.32;4.55;;;;;;;33.61;19.92;93708.66;5035274;28;20053;-47
2021/05/16 03:43:43;;;;;;;4.35;3.28;;;;;;;33.45;20.26;93706.22;5034443;28;20045;-48
2021/05/16 03:46:10;;;;;;;5.85;3.00;;;;;;;33.73;19.47;93710.47;5034998;28;20376;-49
2021/05/16 03:48:38;;;;;;;5.97;3.05;;;;;;;33.35;19.90;93712.84;5034270;28;20049;-52
2021/05/16 03:51:05;;;;;;;4.32;2.83;;;;;;;33.27;20.31;93711.56;5034936;28;20048;-59
2021/05/16 03:53:33;;;;;;;4.28;2.20;;;;;;;33.26;19.61;93710.06;5034326;28;20076;-49
2021/05/16 03:56:00;;;;;;;3.30;2.40;;;;;;;33.66;19.41;93710.78;5034848;28;20068;-54
2021/05/16 03:58:27;;;;;;;4.03;2.17;;;;;;;33.59;19.62;93711.06;5035089;28;20064;-50
2021/05/16 04:00:54;;;;;;;4.68;2.40;;;;;;;33.49;20.03;93723.09;5034607;28;20046;-46
2021/05/16 04:03:21;;;;;;;3.92;2.08;;;;;;;32.79;20.85;93716.47;5034339;28;20049;-47
2021/05/16 04:05:48;;;;;;;3.70;2.38;;;;;;;33.05;20.43;93717.84;5034997;28;20050;-47
2021/05/16 04:08:15;;;;;;;3.10;2.22;;;;;;;32.90;21.33;93711.44;5034828;28;20465;-47
2021/05/16 04:10:43;;;;;;;2.95;2.15;;;;;;;33.23;20.40;93710.94;5034584;28;20060;-47
2021/05/16 04:13:10;;;;;;;3.55;2.20;;;;;;;33.23;20.88;93714.41;5034047;28;20068;-46
2021/05/16 04:15:37;;;;;;;4.05;1.90;;;;;;;32.83;21.28;93710.97;5034912;28;20072;-47
2021/05/16 04:18:04;;;;;;;2.88;1.95;;;;;;;33.32;20.43;93716.44;5034170;28;20045;-48
2021/05/16 04:20:31;;;;;;;3.75;1.92;;;;;;;33.13;20.38;93722.97;5034161;28;20045;-51
2021/05/16 04:23:00;;;;;;;4.00;2.00;;;;;;;33.65;19.89;93725.53;5034253;28;20073;-47
2021/05/16 04:25:28;;;;;;;4.45;2.00;;;;;;;33.17;20.92;93718.91;5034603;28;20072;-50
2021/05/16 04:27:55;;;;;;;3.75;2.00;;;;;;;33.22;20.28;93731.88;5034784;28;20392;-50
2021/05/16 04:30:23;;;;;;;5.68;1.90;;;;;;;33.15;20.36;93726.72;5038210;28;20045;-52
2021/05/16 04:32:50;;;;;;;4.25;1.95;;;;;;;33.06;20.23;93724.75;5037404;28;20041;-47
2021/05/16 04:35:19;;;;;;;3.25;1.70;;;;;;;34.02;19.64;93722.88;5038464;28;20048;-47
2021/05/16 04:37:46;;;;;;;3.80;2.00;;;;;;;32.70;21.28;93736.13;5037389;28;20060;-47
2021/05/16 04:40:14;;;;;;;3.35;1.60;;;;;;;32.99;20.76;93738.53;5038200;28;20057;-49
2021/05/16 04:42:41;;;;;;;2.83;1.65;;;;;;;33.18;20.37;93736.66;5037971;28;20459;-46
2021/05/16 04:45:09;;;;;;;3.40;1.85;;;;;;;33.15;20.61;93736.81;5038007;28;20046;-46
2021/05/16 04:47:36;;;;;;;2.78;1.70;;;;;;;33.42;20.40;93736.91;5038397;28;20076;-51
2021/05/16 04:50:04;;;;;;;3.90;1.85;;;;;;;33.63;19.57;93738.78;5037933;28;20079;-47
2021/05/16 04:52:31;;;;;;;3.42;1.85;;;;;;;33.24;20.56;93739.53;5038071;28;20049;-47
2021/05/16 04:54:58;;;;;;;3.65;1.85;;;;;;;33.91;19.68;93749.69;5037436;28;20038;-55
2021/05/16 04:57:25;;;;;;;2.80;1.83;;;;;;;33.73;19.81;93734.88;5038141;28;20364;-49
2021/05/16 04:59:53;;;;;;;2.90;1.90;;;;;;;34.26;18.57;93740.03;5035798;28;20053;-48
2021/05/16 05:02:20;;;;;;;3.60;1.80;;;;;;;34.02;19.56;93739.13;5024328;28;20459;-54
2021/05/16 05:04:47;;;;;;;3.08;1.88;;;;;;;33.19;20.46;93745.53;5020238;28;20049;-49
2021/05/16 05:07:16;;;;;;;5.32;2.05;;;;;;;33.24;20.09;93739.53;5038048;28;20048;-53
2021/05/16 05:09:43;;;;;;;3.58;1.88;;;;;;;34.13;19.47;93739.47;5036663;28;20049;-49
2021/05/16 05:12:10;;;;;;;3.22;2.40;;;;;;;33.44;19.91;93748.06;5037843;28;20041;-47
2021/05/16 05:14:37;;;;;;;4.20;2.22;;;;;;;33.81;19.36;93742.69;5037203;28;20375;-50
2021/05/16 05:17:05;;;;;;;3.47;2.13;;;;;;;33.27;19.73;93754.88;5037954;28;20048;-47
2021/05/16 05:19:32;;;;;;;2.95;1.88;;;;;;;33.46;19.50;93761.16;5037194;28;20079;-53
2021/05/16 05:21:59;;;;;;;6.38;2.42;;;;;;;33.58;19.91;93758.34;5037868;28;20444;-51
2021/05/16 05:24:26;;;;;;;3.63;2.03;;;;;;;33.31;19.74;93758.22;5037299;28;20049;-47
2021/05/16 05:26:53;;;;;;;5.50;2.70;;;;;;;33.96;19.51;93759.94;5019939;28;20045;-57
2021/05/16 05:29:20;;;;;;;3.78;1.92;;;;;;;34.02;19.05;93758.88;5037472;28;20447;-47
2021/05/16 05:31:48;;;;;;;4.53;2.17;;;;;;;34.23;18.70;93762.66;5037321;28;20046;-48
2021/05/16 05:34:15;;;;;;;2.72;1.90;;;;;;;34.09;19.01;93768.66;5037119;28;20052;-47
2021/05/16 05:36:42;;;;;;;4.43;2.10;;;;;;;34.63;18.27;93769.88;5025981;28;20392;-56
2021/05/16 05:39:09;;;;;;;4.40;2.15;;;;;;;34.14;18.90;93767.31;5033976;28;20058;-48
2021/05/16 05:41:37;;;;;;;3.67;1.95;;;;;;;33.46;19.61;93767.31;5036203;28;20052;-48
2021/05/16 05:44:04;;;;;;;3.67;2.10;;;;;;;34.40;19.25;93767.81;5036998;28;20052;-48
2021/05/16 05:46:31;;;;;;;3.67;1.80;;;;;;;33.85;19.68;93770.47;5037308;28;20045;-49
2021/05/16 05:48:58;;;;;;;4.57;2.30;;;;;;;34.22;19.48;93769.28;5035882;28;20053;-47
2021/05/16 05:51:27;;;;;;;4.97;2.30;;;;;;;33.85;19.59;93781.31;5037659;28;20049;-47
2021/05/16 05:53:54;;;;;;;4.72;2.00;;;;;;;34.38;19.07;93772.94;5056217;28;20052;-62
2021/05/16 05:56:21;;;;;;;4.03;2.22;;;;;;;34.28;18.95;93778.31;5049655;28;20044;-58
2021/05/16 05:58:48;;;;;;;4.78;2.00;;;;;;;33.97;19.40;93777.69;5036834;28;20483;-48
2021/05/16 06:01:15;;;;;;;3.92;2.20;;;;;;;34.85;18.39;93775.88;5036898;28;20055;-46
2021/05/16 06:03:45;;;;;;;6.53;2.28;;;;;;;33.90;19.46;93769.88;5036841;28;20072;-51
2021/05/16 06:06:12;;;;;;;4.35;2.53;;;;;;;33.95;19.50;93769.25;5036309;28;20482;-47
2021/05/16 06:08:39;;;;;;;4.28;2.63;;;;;;;34.21;18.68;93767.78;5036078;28;20049;-46
2021/05/16 06:11:06;;;;;;;5.47;2.10;;;;;;;33.60;19.25;93774.16;5035995;28;20048;-46
2021/05/16 06:13:34;;;;;;;4.55;2.15;;;;;;;34.14;18.68;93776.22;5035955;28;20045;-46
2021/05/16 06:16:01;;;;;;;3.80;2.25;;;;;;;33.76;19.77;93773.13;5036328;28;20044;-52
2021/05/16 06:18:28;;;;;;;4.00;2.08;;;;;;;34.52;18.59;93772.28;5036116;28;20049;-45
2021/05/16 06:20:55;;;;;;;5.32;2.40;;;;;;;34.04;18.82;93777.41;5034464;28;20052;-46
2021/05/16 06:23:32;;;;;;;5.28;2.05;;;;;;;34.19;18.74;93772.91;5036404;28;20053;-46
2021/05/16 06:25:59;;;;;;;4.25;1.88;;;;;;;34.47;18.49;93781.06;5035020;28;20045;-47
2021/05/16 06:28:26;;;;;;;5.32;2.10;;;;;;;34.22;18.92;93777.41;5036868;28;20045;-59
2021/05/16 06:30:53;;;;;;;4.75;2.10;;;;;;;34.39;18.49;93786.03;5035678;28;20049;-52
2021/05/16 06:33:21;;;;;;;4.18;2.05;;;;;;;34.10;18.79;93785.72;5036232;28;20057;-52
2021/05/16 06:35:48;;;;;;;3.67;1.75;;;;;;;34.78;18.46;93783.56;5036463;28;20037;-48
2021/05/16 06:38:16;;;;;;;4.40;2.00;;;;;;;34.79;18.20;93791.25;5036410;28;20049;-46
2021/05/16 06:40:43;;;;;;;4.47;1.85;;;;;;;34.53;18.30;93776.53;5018150;28;20054;-50
2021/05/16 06:43:12;;;;;;;4.07;1.83;;;;;;;34.40;18.60;93775.94;5035957;28;20045;-45
2021/05/16 06:45:39;;;;;;;3.80;1.98;;;;;;;34.14;18.96;93781.63;5025272;28;20364;-46
2021/05/16 06:48:06;;;;;;;3.60;1.80;;;;;;;34.95;18.00;93770.44;5017575;28;20445;-46
2021/05/16 06:50:33;;;;;;;3.35;2.00;;;;;;;35.50;17.57;93774.47;5033957;28;20053;-48
2021/05/16 06:53:00;;;;;;;4.47;2.00;;;;;;;36.28;17.00;93769.91;5030411;28;20049;-46
2021/05/16 06:55:28;;;;;;;3.42;1.70;;;;;;;36.35;16.83;93768.81;5016290;28;20049;-54
2021/05/16 06:57:55;;;;;;;4.57;2.08;;;;;;;36.49;16.56;93770.84;5016341;28;20353;-51
2021/05/16 07:00:22;;;;;;;3.40;2.10;;;;;;;36.50;16.63;93766.13;5028662;28;20056;-49
2021/05/16 07:02:49;;;;;;;3.70;1.95;;;;;;;36.56;16.37;93770.47;5033034;28;20041;-47
2021/05/16 07:05:16;;;;;;;3.20;2.00;;;;;;;36.70;16.13;93769.72;5035842;28;20056;-53
2021/05/16 07:07:43;;;;;;;4.80;2.15;;;;;;;36.32;16.87;93762.34;5035783;28;20045;-46
2021/05/16 07:10:11;;;;;;;2.45;1.80;;;;;;;36.72;16.19;93761.09;5035253;28;20056;-47
2021/05/16 07:12:38;;;;;;;4.10;2.17;;;;;;;37.24;16.00;93773.13;5035461;28;20057;-56
2021/05/16 07:15:07;;;;;;;3.20;2.03;;;;;;;36.06;17.50;93758.59;5035142;28;20045;-50
2021/05/16 07:17:35;;;;;;;3.10;2.10;;;;;;;36.06;17.25;93764.03;5035471;28;20048;-48
2021/05/16 07:20:03;;;;;;;4.57;2.10;;;;;;;35.52;17.84;93761.19;5033477;28;20049;-47
2021/05/16 07:22:30;;;;;;;4.45;1.95;;;;;;;35.83;17.59;93760.88;5035344;28;20052;-50
2021/05/16 07:24:57;;;;;;;3.67;2.33;;;;;;;35.02;18.29;93753.81;5034206;28;20363;-52
2021/05/16 07:27:24;;;;;;;3.25;2.15;;;;;;;35.26;18.00;93753.88;5030224;28;20467;-50
2021/05/16 07:29:52;;;;;;;4.25;2.25;;;;;;;35.44;18.17;93757.31;5034942;28;20056;-47
2021/05/16 07:32:19;;;;;;;3.50;2.05;;;;;;;35.29;17.93;93759.16;5035062;28;20356;-45
2021/05/16 07:34:46;;;;;;;3.30;2.47;;;;;;;35.58;17.84;93757.81;5034661;28;20041;-50
2021/05/16 07:37:13;;;;;;;3.65;2.08;;;;;;;35.76;17.49;93761.19;5031631;28;20365;-51
2021/05/16 07:39:41;;;;;;;4.75;2.50;;;;;;;35.74;17.54;93760.91;5020337;28;20384;-50
2021/05/16 07:42:08;;;;;;;3.55;1.98;;;;;;;35.30;18.08;93751.75;5021032;28;20045;-52
2021/05/16 07:44:36;;;;;;;4.40;2.22;;;;;;;36.74;17.16;93756.69;5028075;28;20053;-45
2021/05/16 07:47:03;;;;;;;3.50;2.10;;;;;;;37.41;16.64;93767.16;5035024;28;20463;-48
2021/05/16 07:49:31;;;;;;;5.28;2.30;;;;;;;37.75;16.50;93761.00;5026524;28;20049;-49
2021/05/16 07:51:58;;;;;;;5.72;2.30;;;;;;;36.55;17.35;93757.31;5034909;28;20045;-52
2021/05/16 07:54:25;;;;;;;5.82;2.22;;;;;;;36.09;18.01;93757.66;5016191;28;20388;-47
2021/05/16 07:56:52;;;;;;;5.35;2.47;;;;;;;36.96;17.02;93758.31;5026392;28;20041;-49
2021/05/16 07:59:19;;;;;;;4.90;2.53;;;;;;;37.38;16.25;93751.78;5034723;28;20460;-57
2021/05/16 08:01:47;;;;;;;6.63;2.67;;;;;;;36.51;17.65;93762.19;5034884;28;20080;-51
2021/05/16 08:04:14;;;;;;;4.70;2.60;;;;;;;36.16;17.66;93760.03;5034440;28;20486;-67
2021/05/16 08:06:41;;;;;;;3.28;2.05;;;;;;;36.09;18.42;93755.69;5034904;28;20064;-63
2021/05/16 08:09:08;;;;;;;8.52;2.17;;;;;;;36.35;18.01;93757.94;5033893;28;20053;-53
2021/05/16 08:11:36;;;;;;;6.50;3.05;;;;;;;36.82;17.75;93765.25;5030574;28;20353;-51
2021/05/16 08:14:03;;;;;;;8.02;2.15;;;;;;;37.00;17.80;93747.97;5030398;28;20069;-50
2021/05/16 08:16:31;;;;;;;3.70;2.20;;;;;;;37.14;17.54;93751.88;5015319;28;20042;-53
2021/05/16 08:18:58;;;;;;;4.15;2.08;;;;;;;37.12;17.29;93757.06;5022895;28;20045;-55
2021/05/16 08:21:25;;;;;;;7.93;2.28;;;;;;;37.50;16.85;93745.25;5033028;28;20650;-52
2021/05/16 08:23:53;;;;;;;3.08;1.92;;;;;;;37.29;17.37;93753.41;5034852;28;20452;-66
2021/05/16 08:26:20;;;;;;;3.78;2.10;;;;;;;37.62;16.51;93753.09;5035127;28;20045;-51
2021/05/16 08:28:47;;;;;;;5.10;2.60;;;;;;;37.91;16.55;93751.53;5035143;28;20049;-67
2021/05/16 08:31:14;;;;;;;6.22;2.35;;;;;;;37.61;17.05;93753.59;5034679;28;20367;-59
2021/05/16 08:33:41;;;;;;;4.97;2.53;;;;;;;38.00;16.36;93743.22;5035152;28;20376;-63
2021/05/16 08:36:08;;;;;;;4.20;2.50;;;;;;;38.40;15.54;93749.88;5035063;28;20045;-50
2021/05/16 08:38:35;;;;;;;4.30;2.47;;;;;;;38.70;15.87;93753.91;5027046;28;20384;-59
2021/05/16 08:41:03;;;;;;;4.13;2.40;;;;;;;37.37;17.00;93758.44;5034232;28;20053;-52
2021/05/16 08:43:30;;;;;;;3.83;2.00;;;;;;;37.80;16.37;93745.94;5034535;28;20045;-54
2021/05/16 08:45:57;;;;;;;3.75;1.90;;;;;;;37.75;16.75;93752.81;5034593;28;20041;-45
2021/05/16 08:48:29;;;;;;;4.63;2.35;;;;;;;37.61;16.45;93756.31;5034358;28;20406;-44
2021/05/16 08:50:57;;;;;;;5.88;2.45;;;;;;;37.17;17.07;93762.56;5026707;28;20049;-44
2021/05/16 08:53:24;;;;;;;4.65;2.28;;;;;;;36.97;17.37;93765.25;5014781;28;20053;-44
2021/05/16 08:55:51;;;;;;;3.20;1.60;;;;;;;37.35;16.67;93767.84;5016125;28;20470;-53
2021/05/16 08:58:18;;;;;;;3.65;2.30;;;;;;;36.69;17.60;93762.00;5014565;28;20361;-55
2021/05/16 09:00:48;;;;;;;7.53;2.10;;;;;;;36.64;17.97;93763.41;5026035;28;20460;-51
2021/05/16 09:03:17;;;;;;;2.85;1.83;;;;;;;36.92;18.17;93757.72;5032164;28;20041;-48
2021/05/16 09:05:52;;;;;;;4.47;1.73;;;;;;;37.21;17.03;93754.97;5014783;28;20483;-48
2021/05/16 09:08:21;;;;;;;3.00;1.90;;;;;;;37.62;17.07;93755.84;5013972;28;20050;-48
2021/05/16 09:10:56;;;;;;;2.90;1.70;;;;;;;38.18;16.31;93753.09;5025763;28;20045;-56
2021/05/16 09:13:31;;;;;;;3.40;1.67;;;;;;;37.36;16.51;93746.78;5033639;28;20048;-53
2021/05/16 09:16:00;;;;;;;4.40;1.80;;;;;;;37.75;16.20;93741.91;5035698;28;20048;-51
2021/05/16 09:18:32;;;;;;;3.30;1.63;;;;;;;37.80;16.66;93738.50;5037716;28;20480;-46
2021/05/16 09:21:29;;;;;;;2.08;1.30;;;;;;;38.12;16.02;93738.63;5037322;28;20391;-47
2021/05/16 09:24:02;;;;;;;3.20;1.60;;;;;;;38.25;16.10;93725.38;5037703;28;20452;-62
2021/05/16 09:26:34;;;;;;;3.92;1.73;;;;;;;38.34;15.49;93738.16;5037644;28;20345;-46
2021/05/16 09:29:19;;;;;;;;;;;;;;;38.16;15.08;93730.97;5038128;28;20053;-45
2021/05/16 09:31:47;;;;;;;19.40;15.00;;;;;;;37.66;15.38;93729.13;5037079;28;19913;-47
2021/05/16 09:34:14;;;;;;;220.25;150.75;;;;;;;37.19;16.23;93727.44;5037376;28;20053;-58
2021/05/16 09:36:45;;;;;;;58.47;40.45;;;;;;;36.95;16.72;93730.28;5019962;28;20377;-48
2021/05/16 09:39:26;;;;;;;7.18;5.55;;;;;;;37.06;17.70;93732.44;5018056;28;20061;-71
2021/05/16 09:42:08;;;;;;;4.35;2.70;;;;;;;37.73;16.32;93725.25;5036735;28;20052;-47
2021/05/16 09:44:48;;;;;;;6.47;2.42;;;;;;;37.75;15.86;93724.81;5037039;28;20057;-46
2021/05/16 09:47:19;;;;;;;7.03;2.40;;;;;;;37.80;16.20;93724.13;5037309;28;20124;-48
2021/05/16 09:49:50;;;;;;;3.00;2.30;;;;;;;37.21;16.23;93714.09;5036911;28;20052;-60
2021/05/16 09:52:19;;;;;;;4.40;2.13;;;;;;;36.86;16.79;93708.63;5036526;28;20444;-48
2021/05/16 09:55:07;;;;;;;21.70;19.40;;;;;;;38.01;15.68;93713.97;5036982;28;20045;-46
2021/05/16 09:57:38;;;;;;;9.27;5.13;;;;;;;38.01;16.35;93706.53;5037108;28;20045;-48
2021/05/16 10:00:16;;;;;;;15.60;10.57;;;;;;;38.36;15.51;93703.69;5036917;28;20045;-48
2021/05/16 10:02:44;;;;;;;4.60;2.35;;;;;;;38.64;14.74;93700.50;5035169;28;20045;-45
2021/05/16 10:05:14;;;;;;;6.90;4.38;;;;;;;38.93;14.92;93700.22;5037050;28;20049;-49
2021/05/16 10:07:42;;;;;;;11.17;3.30;;;;;;;39.09;15.54;93699.63;5037031;28;20483;-52
2021/05/16 10:10:13;;;;;;;4.18;2.60;;;;;;;38.38;14.87;93695.75;5036692;28;20361;-47
2021/05/16 10:12:41;;;;;;;5.82;2.95;;;;;;;37.91;15.36;93694.25;5036145;28;20045;-44
2021/05/16 10:15:16;;;;;;;4.72;2.60;;;;;;;38.29;14.64;93697.91;5036397;28;20474;-44
2021/05/16 10:17:48;;;;;;;4.20;2.42;;;;;;;38.40;15.13;93687.09;5019634;28;20048;-59
2021/05/16 10:20:17;;;;;;;3.63;2.05;;;;;;;38.27;15.59;93700.38;5014368;28;20075;-45
2021/05/16 10:22:53;;;;;;;4.25;1.90;;;;;;;37.90;15.50;93692.75;5018132;28;20033;-43
2021/05/16 10:25:41;;;;;;;3.85;2.17;;;;;;;37.51;15.48;93692.25;5036709;28;20045;-47
2021/05/16 10:28:15;;;;;;;3.05;2.05;;;;;;;37.93;15.50;93697.97;5016351;28;20062;-45
2021/05/16 10:31:05;;;;;;;2.35;1.90;;;;;;;37.31;15.93;93696.44;5023896;28;20060;-45
2021/05/16 10:33:34;;;;;;;4.03;2.73;;;;;;;37.41;15.69;93709.94;5036271;28;20049;-51
2021/05/16 10:36:02;;;;;;;4.55;2.90;;;;;;;37.82;15.96;93721.66;5036596;28;20052;-44
2021/05/16 10:38:36;;;;;;;3.13;2.10;;;;;;;36.79;17.39;93743.66;5023364;28;20057;-65
2021/05/16 10:41:17;;;;;;;7.70;2.95;;;;;;;37.84;17.01;93762.84;5026908;28;20060;-42
2021/05/16 10:43:45;;;;;;;8.77;3.53;;;;;;;36.54;18.18;93778.34;5007193;28;20041;-46
2021/05/16 10:46:37;;;;;;;13.70;4.88;;;;;;;37.14;17.90;93770.94;5036132;28;20368;-47
2021/05/16 10:49:19;;;;;;;5.75;2.80;;;;;;;36.43;17.75;93767.25;5032770;28;20046;-44
2021/05/16 10:51:47;;;;;;;4.22;2.13;;;;;;;33.49;20.03;93766.44;5033821;28;20061;-44
2021/05/16 10:54:28;;;;;;;4.05;2.25;;;;;;;35.52;18.28;93761.19;5021948;28;20505;-44
2021/05/16 10:57:10;;;;;;;8.10;2.55;;;;;;;35.54;18.09;93753.31;5026834;28;20045;-45
2021/05/16 10:59:38;;;;;;;5.32;2.40;;;;;;;35.70;18.22;93740.56;5016311;28;20050;-44
2021/05/16 11:02:06;;;;;;;3.72;2.00;;;;;;;35.82;18.00;93739.56;5034489;28;20328;-46
2021/05/16 11:04:55;;;;;;;3.08;1.98;;;;;;;36.02;17.67;93745.19;5018428;28;20052;-45
2021/05/16 11:07:35;;;;;;;2.95;1.75;;;;;;;35.52;18.04;93742.16;5034764;28;20053;-44
2021/05/16 11:10:26;;;;;;;4.88;1.67;;;;;;;35.38;18.58;93748.25;5031482;28;20337;-45
2021/05/16 11:13:15;;;;;;;2.85;1.40;;;;;;;35.48;18.65;93736.16;5035014;28;20372;-42
2021/05/16 11:15:49;;;;;;;3.10;1.92;;;;;;;35.68;18.21;93738.28;5016004;28;20046;-46
2021/05/16 11:18:19;;;;;;;3.63;1.95;;;;;;;35.04;19.36;93751.41;5019805;28;20049;-46
2021/05/16 11:21:03;;;;;;;5.63;2.85;;;;;;;35.29;18.62;93756.44;5028005;28;20053;-45
2021/05/16 11:23:32;;;;;;;4.28;2.70;;;;;;;35.10;19.27;93752.28;5034861;28;20475;-49
2021/05/16 11:26:06;;;;;;;4.28;2.80;;;;;;;35.75;18.58;93759.69;5035310;28;20468;-45
2021/05/16 11:28:57;;;;;;;3.58;2.55;;;;;;;34.30;20.77;93764.28;5035523;28;20053;-47
2021/05/16 11:31:27;;;;;;;3.15;2.25;;;;;;;34.24;20.85;93761.44;5035008;28;20041;-40
2021/05/16 11:34:00;;;;;;;4.40;2.50;;;;;;;34.66;20.96;93766.25;5034516;28;20053;-46
2021/05/16 11:36:35;;;;;;;2.50;1.90;;;;;;;34.22;20.95;93765.81;5035085;28;20460;-46
2021/05/16 11:39:05;;;;;;;4.70;1.90;;;;;;;34.69;20.36;93757.22;5034891;28;20064;-43
2021/05/16 11:41:37;;;;;;;4.53;2.30;;;;;;;35.05;19.27;93763.75;5035130;28;20456;-45
2021/05/16 11:44:09;;;;;;;24.05;17.30;;;;;;;36.13;18.07;93753.56;5021049;28;20384;-45